createdAt,value
2018-06-12T00:01:47.325Z,15.94
2018-06-12T00:04:50.519Z,15.88
2018-06-12T00:07:53.636Z,15.87
2018-06-12T00:10:56.965Z,15.86
2018-06-12T00:14:00.077Z,15.83
2018-06-12T00:17:03.395Z,15.87
2018-06-12T00:20:06.441Z,15.94
2018-06-12T00:23:09.696Z,16.01
2018-06-12T00:26:12.900Z,16.08
2018-06-12T00:29:16.010Z,16.02
2018-06-12T00:32:19.075Z,16.02
2018-06-12T00:35:22.144Z,16.07
2018-06-12T00:38:25.284Z,16.07
2018-06-12T00:41:29.266Z,16.13
2018-06-12T00:44:32.330Z,16.13
2018-06-12T00:47:35.409Z,16.09
2018-06-12T00:50:38.505Z,15.97
2018-06-12T00:53:41.747Z,15.96
2018-06-12T00:57:02.088Z,16.01
2018-06-12T01:00:05.296Z,16.08
2018-06-12T01:03:08.372Z,16.07
2018-06-12T01:06:12.382Z,16.06
2018-06-12T01:09:15.690Z,16.12
2018-06-12T01:12:18.731Z,16.04
2018-06-12T01:15:21.785Z,15.96
2018-06-12T01:18:25.039Z,15.94
2018-06-12T01:25:34.278Z,15.88
2018-06-12T01:28:37.407Z,15.86
2018-06-12T01:31:40.705Z,15.80
2018-06-12T01:34:43.810Z,15.81
2018-06-12T01:37:46.872Z,15.79
2018-06-12T01:40:50.110Z,15.74
2018-06-12T01:43:53.236Z,15.76
2018-06-12T01:46:56.486Z,15.74
2018-06-12T01:49:59.577Z,15.76
2018-06-12T01:53:02.649Z,15.74
2018-06-12T01:56:05.764Z,15.70
2018-06-12T01:59:08.981Z,15.65
2018-06-12T02:02:12.107Z,15.67
2018-06-12T02:05:15.328Z,15.62
2018-06-12T02:08:18.447Z,15.61
2018-06-12T02:11:21.695Z,15.62
2018-06-12T02:14:24.749Z,15.70
2018-06-12T02:17:27.904Z,15.65
2018-06-12T02:20:31.024Z,15.61
2018-06-12T02:23:34.127Z,15.57
2018-06-12T02:26:37.361Z,15.56
2018-06-12T02:29:40.445Z,15.52
2018-06-12T02:32:43.562Z,15.54
2018-06-12T02:35:46.691Z,15.48
2018-06-12T02:38:49.806Z,15.36
2018-06-12T02:41:53.681Z,15.20
2018-06-12T02:44:56.829Z,15.07
2018-06-12T02:47:59.871Z,14.87
2018-06-12T02:51:02.990Z,14.86
2018-06-12T02:54:06.226Z,14.79
2018-06-12T02:57:09.487Z,14.80
2018-06-12T03:00:12.702Z,14.80
2018-06-12T03:03:16.993Z,14.64
2018-06-12T03:06:20.145Z,14.55
2018-06-12T03:09:23.504Z,14.51
2018-06-12T03:12:26.848Z,14.51
2018-06-12T03:15:29.886Z,14.48
2018-06-12T03:18:33.125Z,14.38
2018-06-12T03:21:36.533Z,14.37
2018-06-12T03:24:39.778Z,14.25
2018-06-12T03:27:43.084Z,14.21
2018-06-12T03:30:48.288Z,14.16
2018-06-12T03:33:51.374Z,14.15
2018-06-12T03:36:54.445Z,14.13
2018-06-12T03:39:57.421Z,14.04
2018-06-12T03:43:00.806Z,14.00
2018-06-12T03:46:04.001Z,13.91
2018-06-12T03:49:07.121Z,13.90
2018-06-12T03:52:10.187Z,13.85
2018-06-12T03:55:14.814Z,13.84
2018-06-12T03:58:18.237Z,13.91
2018-06-12T04:01:21.538Z,13.89
2018-06-12T04:04:24.808Z,13.96
2018-06-12T04:07:28.012Z,13.94
2018-06-12T04:10:31.132Z,13.96
2018-06-12T04:13:34.335Z,13.92
2018-06-12T04:16:37.498Z,14.00
2018-06-12T04:19:40.578Z,14.05
2018-06-12T04:22:43.669Z,14.08
2018-06-12T04:25:46.756Z,14.06
2018-06-12T04:28:49.907Z,14.09
2018-06-12T04:31:53.235Z,14.09
2018-06-12T04:34:56.392Z,14.18
2018-06-12T04:37:59.607Z,14.34
2018-06-12T04:41:02.639Z,14.48
2018-06-12T04:44:05.760Z,14.33
2018-06-12T04:47:08.781Z,14.39
2018-06-12T04:50:11.858Z,14.41
2018-06-12T04:53:14.948Z,14.43
2018-06-12T04:56:19.145Z,14.45
2018-06-12T04:59:22.381Z,14.55
2018-06-12T05:02:25.506Z,14.64
2018-06-12T05:05:28.709Z,14.63
2018-06-12T05:08:31.774Z,14.79
2018-06-12T05:11:35.987Z,14.80
2018-06-12T05:14:39.159Z,14.89
2018-06-12T05:17:42.265Z,14.84
2018-06-12T05:20:45.378Z,14.84
2018-06-12T05:23:48.610Z,14.81
2018-06-12T05:26:51.753Z,14.76
2018-06-12T05:29:55.083Z,14.78
2018-06-12T05:32:58.440Z,14.72
2018-06-12T05:36:02.510Z,14.76
2018-06-12T05:39:09.941Z,14.71
2018-06-12T05:42:12.949Z,14.72
2018-06-12T05:45:16.224Z,14.77
2018-06-12T05:48:19.539Z,14.78
2018-06-12T05:51:27.992Z,14.84
2018-06-12T05:54:31.505Z,14.95
2018-06-12T05:57:35.065Z,15.24
2018-06-12T06:00:38.504Z,15.54
2018-06-12T06:03:41.909Z,15.37
2018-06-12T06:06:45.548Z,15.30
2018-06-12T06:09:48.830Z,15.24
2018-06-12T06:12:52.171Z,15.14
2018-06-12T06:15:55.481Z,15.18
2018-06-12T06:18:58.954Z,15.09
2018-06-12T06:22:02.803Z,15.15
2018-06-12T06:25:06.400Z,15.03
2018-06-12T06:28:09.732Z,15.12
2018-06-12T06:31:12.879Z,15.26
2018-06-12T06:34:16.073Z,15.26
2018-06-12T06:37:19.359Z,15.31
2018-06-12T06:40:22.816Z,15.23
2018-06-12T06:43:26.159Z,15.36
2018-06-12T06:46:29.146Z,15.39
2018-06-12T06:49:32.187Z,15.47
2018-06-12T06:52:36.097Z,15.58
2018-06-12T06:55:39.388Z,15.93
2018-06-12T06:58:42.622Z,15.95
2018-06-12T07:01:45.704Z,16.14
2018-06-12T07:04:48.798Z,16.09
2018-06-12T07:07:51.797Z,16.12
2018-06-12T07:10:54.850Z,16.09
2018-06-12T07:13:57.978Z,16.04
2018-06-12T07:17:01.044Z,15.94
2018-06-12T07:20:04.321Z,16.03
2018-06-12T07:23:07.378Z,16.15
2018-06-12T07:26:10.517Z,15.93
2018-06-12T07:29:13.798Z,15.87
2018-06-12T07:32:17.983Z,16.11
2018-06-12T07:35:21.008Z,16.42
2018-06-12T07:38:24.211Z,16.68
2018-06-12T07:41:28.399Z,16.99
2018-06-12T07:44:31.518Z,17.28
2018-06-12T07:47:34.744Z,17.33
2018-06-12T07:50:38.019Z,17.23
2018-06-12T07:53:41.387Z,16.97
2018-06-12T07:56:44.456Z,16.88
2018-06-12T07:59:47.898Z,16.58
2018-06-12T08:02:51.239Z,16.25
2018-06-12T08:05:55.430Z,16.26
2018-06-12T08:08:58.709Z,16.31
2018-06-12T08:12:02.082Z,16.38
2018-06-12T08:15:05.432Z,16.56
2018-06-12T08:18:08.659Z,16.53
2018-06-12T08:21:11.710Z,16.44
2018-06-12T08:24:14.746Z,16.15
2018-06-12T08:27:17.813Z,16.16
2018-06-12T08:30:21.138Z,16.20
2018-06-12T08:33:24.260Z,16.33
2018-06-12T08:36:27.326Z,16.56
2018-06-12T08:39:30.444Z,16.58
2018-06-12T08:42:33.550Z,16.71
2018-06-12T08:45:36.588Z,16.69
2018-06-12T08:48:42.754Z,16.55
2018-06-12T08:51:45.974Z,16.33
2018-06-12T08:54:49.070Z,16.30
2018-06-12T08:57:52.197Z,16.28
2018-06-12T09:00:55.332Z,16.37
2018-06-12T09:03:58.615Z,16.77
2018-06-12T09:07:01.940Z,16.96
2018-06-12T09:10:05.121Z,16.71
2018-06-12T09:13:08.273Z,16.50
2018-06-12T09:16:11.346Z,16.72
2018-06-12T09:19:14.426Z,16.73
2018-06-12T09:22:17.579Z,16.53
2018-06-12T09:25:20.616Z,16.80
2018-06-12T09:28:24.746Z,17.09
2018-06-12T09:31:27.855Z,16.70
2018-06-12T09:34:30.968Z,16.54
2018-06-12T09:37:34.075Z,16.56
2018-06-12T09:40:37.227Z,16.58
2018-06-12T09:43:40.370Z,16.73
2018-06-12T09:46:43.646Z,16.86
2018-06-12T09:49:47.059Z,17.08
2018-06-12T09:52:50.358Z,17.05
2018-06-12T09:55:53.656Z,17.39
2018-06-12T09:58:57.007Z,17.37
2018-06-12T10:02:00.373Z,17.37
2018-06-12T10:05:03.765Z,17.62
2018-06-12T10:08:07.014Z,17.71
2018-06-12T10:11:10.369Z,17.86
2018-06-12T10:14:13.466Z,17.48
2018-06-12T10:17:16.773Z,17.04
2018-06-12T10:20:20.290Z,17.30
2018-06-12T10:23:23.526Z,17.40
2018-06-12T10:26:26.705Z,17.35
2018-06-12T10:29:29.854Z,17.63
2018-06-12T10:32:33.074Z,17.79
2018-06-12T10:35:36.388Z,17.79
2018-06-12T10:38:39.729Z,17.79
2018-06-12T10:41:42.913Z,18.02
2018-06-12T10:44:46.243Z,18.15
2018-06-12T10:47:49.558Z,18.38
2018-06-12T10:50:53.124Z,18.33
2018-06-12T10:53:56.790Z,18.37
2018-06-12T10:57:00.107Z,18.45
2018-06-12T11:00:03.647Z,18.48
2018-06-12T11:03:07.190Z,18.35
2018-06-12T11:06:11.593Z,17.76
2018-06-12T11:09:14.824Z,17.40
2018-06-12T11:12:18.059Z,17.31
2018-06-12T11:15:21.782Z,17.21
2018-06-12T11:18:24.827Z,17.41
2018-06-12T11:21:27.771Z,17.63
2018-06-12T11:24:30.806Z,17.97
2018-06-12T11:27:33.784Z,18.42
2018-06-12T11:30:36.851Z,18.74
2018-06-12T11:33:39.900Z,19.00
2018-06-12T11:36:43.026Z,19.30
2018-06-12T11:39:45.934Z,19.89
2018-06-12T11:42:48.921Z,20.55
2018-06-12T11:45:52.797Z,20.63
2018-06-12T11:48:55.852Z,21.19
2018-06-12T11:51:58.833Z,21.68
2018-06-12T11:55:01.847Z,21.02
2018-06-12T11:58:04.830Z,20.86
2018-06-12T12:01:08.008Z,20.41
2018-06-12T12:04:11.138Z,20.06
2018-06-12T12:07:14.187Z,19.66
2018-06-12T12:10:17.178Z,19.86
2018-06-12T12:13:20.152Z,19.83
2018-06-12T12:16:23.249Z,19.85
2018-06-12T12:19:26.345Z,20.03
2018-06-12T12:22:29.306Z,20.13
2018-06-12T12:25:32.328Z,20.57
2018-06-12T12:28:35.596Z,20.87
2018-06-12T12:31:38.894Z,20.93
2018-06-12T12:34:41.949Z,21.39
2018-06-12T12:37:44.837Z,21.57
2018-06-12T12:40:47.945Z,21.96
2018-06-12T12:43:50.871Z,21.69
2018-06-12T12:46:53.862Z,21.66
2018-06-12T12:49:56.838Z,21.87
2018-06-12T12:52:59.994Z,21.56
2018-06-12T12:56:02.980Z,22.13
2018-06-12T12:59:06.030Z,22.40
2018-06-12T13:02:10.020Z,21.85
2018-06-12T13:05:14.052Z,22.06
2018-06-12T13:08:17.118Z,22.25
2018-06-12T13:11:20.062Z,22.24
2018-06-12T13:14:23.153Z,23.05
2018-06-12T13:17:26.221Z,23.05
2018-06-12T13:20:29.191Z,22.89
2018-06-12T13:23:32.442Z,23.23
2018-06-12T13:26:35.632Z,23.14
2018-06-12T13:29:38.830Z,22.00
2018-06-12T13:32:41.878Z,21.96
2018-06-12T13:35:44.894Z,22.48
2018-06-12T13:38:47.951Z,22.47
2018-06-12T13:41:51.051Z,22.23
2018-06-12T13:44:54.293Z,22.20
2018-06-12T13:47:57.344Z,21.20
2018-06-12T13:51:00.473Z,21.11
2018-06-12T13:54:03.496Z,20.87
2018-06-12T13:57:06.617Z,20.59
2018-06-12T14:00:09.674Z,20.32
2018-06-12T14:03:12.758Z,20.23
2018-06-12T14:06:15.896Z,20.48
2018-06-12T14:09:18.955Z,21.29
2018-06-12T14:12:21.977Z,21.56
2018-06-12T14:15:25.019Z,21.35
2018-06-12T14:18:28.029Z,21.72
2018-06-12T14:21:31.070Z,21.38
2018-06-12T14:24:34.147Z,21.66
2018-06-12T14:27:37.202Z,22.49
2018-06-12T14:30:40.154Z,22.69
2018-06-12T14:33:43.254Z,22.12
2018-06-12T14:36:46.400Z,22.65
2018-06-12T14:39:49.493Z,22.32
2018-06-12T14:42:52.766Z,22.68
2018-06-12T14:45:55.744Z,22.83
2018-06-12T14:48:58.748Z,22.88
2018-06-12T14:52:01.693Z,22.92
2018-06-12T14:55:04.698Z,22.72
2018-06-12T14:58:07.710Z,22.50
2018-06-12T15:01:10.656Z,22.55
2018-06-12T15:04:13.663Z,22.60
2018-06-12T15:07:16.637Z,21.63
2018-06-12T15:10:19.665Z,21.43
2018-06-12T15:13:22.664Z,21.33
2018-06-12T15:16:25.638Z,21.07
2018-06-12T15:19:29.567Z,20.85
2018-06-12T15:22:32.535Z,20.74
2018-06-12T15:25:35.754Z,20.80
2018-06-12T15:28:38.746Z,20.89
2018-06-12T15:31:42.068Z,21.00
2018-06-12T15:34:45.078Z,20.95
2018-06-12T15:37:48.077Z,20.61
2018-06-12T15:40:51.109Z,20.41
2018-06-12T15:43:54.121Z,20.31
2018-06-12T15:46:57.167Z,20.35
2018-06-12T15:50:00.188Z,19.94
2018-06-12T15:53:03.104Z,19.96
2018-06-12T15:56:06.236Z,19.94
2018-06-12T15:59:09.231Z,19.99
2018-06-12T16:02:12.170Z,20.11
2018-06-12T16:05:15.238Z,20.29
2018-06-12T16:08:19.284Z,20.35
2018-06-12T16:11:22.523Z,20.37
2018-06-12T16:14:25.544Z,20.32
2018-06-12T16:17:28.445Z,20.05
2018-06-12T16:20:31.499Z,19.78
2018-06-12T16:23:34.503Z,19.93
2018-06-12T16:26:37.436Z,19.86
2018-06-12T16:29:40.512Z,20.09
2018-06-12T16:32:43.504Z,19.84
2018-06-12T16:35:46.606Z,19.67
2018-06-12T16:38:49.920Z,19.55
2018-06-12T16:41:52.931Z,19.41
2018-06-12T16:44:55.934Z,19.35
2018-06-12T16:47:59.015Z,19.52
2018-06-12T16:51:02.018Z,19.55
2018-06-12T16:54:05.644Z,19.60
2018-06-12T16:57:08.678Z,19.54
2018-06-12T17:00:11.677Z,19.36
2018-06-12T17:03:14.644Z,19.46
2018-06-12T17:06:17.613Z,19.50
2018-06-12T17:09:21.140Z,19.47
2018-06-12T17:12:24.145Z,19.45
2018-06-12T17:15:27.280Z,19.33
2018-06-12T17:18:30.289Z,19.33
2018-06-12T17:21:33.325Z,19.14
2018-06-12T17:24:36.387Z,18.98
2018-06-12T17:27:39.406Z,18.69
2018-06-12T17:30:42.437Z,18.63
2018-06-12T17:33:45.416Z,18.49
2018-06-12T17:36:48.495Z,18.41
2018-06-12T17:39:51.798Z,18.36
2018-06-12T17:42:54.832Z,18.30
2018-06-12T17:45:57.847Z,18.14
2018-06-12T17:49:00.768Z,18.19
2018-06-12T17:52:03.830Z,18.05
2018-06-12T17:55:06.805Z,17.89
2018-06-12T17:58:09.973Z,17.87
2018-06-12T18:01:13.051Z,17.83
2018-06-12T18:04:16.092Z,17.80
2018-06-12T18:07:19.111Z,17.74
2018-06-12T18:10:22.261Z,17.69
2018-06-12T18:13:25.244Z,17.76
2018-06-12T18:16:28.241Z,17.63
2018-06-12T18:19:31.155Z,17.64
2018-06-12T18:22:34.189Z,17.59
2018-06-12T18:25:37.217Z,17.60
2018-06-12T18:28:40.234Z,17.60
2018-06-12T18:31:43.292Z,17.56
2018-06-12T18:34:46.228Z,17.45
2018-06-12T18:37:49.362Z,17.34
2018-06-12T18:40:53.467Z,17.35
2018-06-12T18:43:56.915Z,17.25
2018-06-12T18:47:00.061Z,17.28
2018-06-12T18:50:03.095Z,17.23
2018-06-12T18:53:06.135Z,17.19
2018-06-12T18:56:09.087Z,17.14
2018-06-12T18:59:12.417Z,17.13
2018-06-12T19:02:16.348Z,17.17
2018-06-12T19:05:19.313Z,17.15
2018-06-12T19:08:22.388Z,17.03
2018-06-12T19:11:25.429Z,17.03
2018-06-12T19:14:28.429Z,17.01
2018-06-12T19:17:31.489Z,17.01
2018-06-12T19:20:34.458Z,16.97
2018-06-12T19:23:37.506Z,16.97
2018-06-12T19:26:40.506Z,16.99
2018-06-12T19:29:44.485Z,16.96
2018-06-12T19:32:47.653Z,16.93
2018-06-12T19:35:50.767Z,16.88
2018-06-12T19:38:53.755Z,16.81
2018-06-12T19:41:56.729Z,16.78
2018-06-12T19:45:00.689Z,16.68
2018-06-12T19:48:03.891Z,16.69
2018-06-12T19:51:07.010Z,16.58
2018-06-12T19:54:09.953Z,16.61
2018-06-12T19:57:12.993Z,16.58
2018-06-12T20:00:16.691Z,16.48
2018-06-12T20:03:21.665Z,16.47
2018-06-12T20:06:24.640Z,16.45
2018-06-12T20:09:27.676Z,16.41
2018-06-12T20:12:30.594Z,16.36
2018-06-12T20:15:33.818Z,16.27
2018-06-12T20:18:36.783Z,16.20
2018-06-12T20:21:39.780Z,16.19
2018-06-12T20:24:43.851Z,16.12
2018-06-12T20:27:46.922Z,16.06
2018-06-12T20:30:49.901Z,16.04
2018-06-12T20:33:53.222Z,15.95
2018-06-12T20:36:56.288Z,15.89
2018-06-12T20:39:59.416Z,15.83
2018-06-12T20:43:02.472Z,15.82
2018-06-12T20:46:05.667Z,15.76
2018-06-12T20:49:08.753Z,15.64
2018-06-12T20:52:11.974Z,15.59
2018-06-12T20:55:15.043Z,15.57
2018-06-12T20:58:18.110Z,15.46
2018-06-12T21:01:21.172Z,15.40
2018-06-12T21:04:24.138Z,15.35
2018-06-12T21:07:27.160Z,15.29
2018-06-12T21:10:30.215Z,15.20
2018-06-12T21:13:33.192Z,15.11
2018-06-12T21:16:36.278Z,15.08
2018-06-12T21:19:39.379Z,14.99
2018-06-12T21:22:42.501Z,14.88
2018-06-12T21:25:45.519Z,14.78
2018-06-12T21:28:48.593Z,14.70
2018-06-12T21:31:51.600Z,14.67
2018-06-12T21:34:54.575Z,14.66
2018-06-12T21:37:57.557Z,14.73
2018-06-12T21:41:00.579Z,14.73
2018-06-12T21:44:03.530Z,14.67
2018-06-12T21:47:06.596Z,14.63
2018-06-12T21:50:09.630Z,14.57
2018-06-12T21:53:12.608Z,14.58
2018-06-12T21:56:16.299Z,14.76
2018-06-12T21:59:19.373Z,14.77
2018-06-12T22:02:22.449Z,14.88
2018-06-12T22:05:25.594Z,14.88
2018-06-12T22:08:28.691Z,14.90
2018-06-12T22:11:31.843Z,14.86
2018-06-12T22:14:34.952Z,14.86
2018-06-12T22:17:50.022Z,14.82
2018-06-12T22:20:53.162Z,14.81
2018-06-12T22:23:56.266Z,14.72
2018-06-12T22:26:59.336Z,14.71
2018-06-12T22:30:02.357Z,14.71
2018-06-12T22:33:05.468Z,14.76
2018-06-12T22:36:09.387Z,14.75
2018-06-12T22:39:12.413Z,14.75
2018-06-12T22:42:15.518Z,14.77
2018-06-12T22:45:18.482Z,14.79
2018-06-12T22:48:21.464Z,14.86
2018-06-12T22:51:24.509Z,14.88
2018-06-12T22:54:27.494Z,14.89
2018-06-12T22:57:30.549Z,14.91
2018-06-12T23:00:33.580Z,14.86
2018-06-12T23:03:36.603Z,14.83
2018-06-12T23:06:39.622Z,14.81
2018-06-12T23:09:42.783Z,14.82
2018-06-12T23:12:45.908Z,14.81
2018-06-12T23:15:48.864Z,14.82
2018-06-12T23:18:51.875Z,14.82
2018-06-12T23:22:00.323Z,14.76
2018-06-12T23:25:03.436Z,14.69
2018-06-12T23:28:06.480Z,14.69
2018-06-12T23:31:09.431Z,14.68
2018-06-12T23:34:12.461Z,14.68
2018-06-12T23:37:15.411Z,14.67
2018-06-12T23:40:18.456Z,14.75
2018-06-12T23:43:21.518Z,14.67
2018-06-12T23:46:24.480Z,14.63
2018-06-12T23:49:27.460Z,14.60
2018-06-12T23:52:30.454Z,14.63
2018-06-12T23:55:33.384Z,14.68
2018-06-12T23:58:36.400Z,14.68
